sensor_id;sensor_type;location;lat;lon;timestamp;P1;durP1;ratioP1;P2;durP2;ratioP2
23159;SDS011;11748;50.844;4.396;2024-02-26T00:01:42;1.98;;;1.45;;
23159;SDS011;11748;50.844;4.396;2024-02-26T00:04:17;2.13;;;1.50;;
23159;SDS011;11748;50.844;4.396;2024-02-26T00:06:48;4.05;;;1.55;;
23159;SDS011;11748;50.844;4.396;2024-02-26T00:09:17;3.72;;;1.70;;
23159;SDS011;11748;50.844;4.396;2024-02-26T00:11:43;3.72;;;1.58;;
23159;SDS011;11748;50.844;4.396;2024-02-26T00:14:09;3.33;;;1.45;;
23159;SDS011;11748;50.844;4.396;2024-02-26T00:16:35;3.03;;;1.50;;
23159;SDS011;11748;50.844;4.396;2024-02-26T00:19:00;7.00;;;1.88;;
23159;SDS011;11748;50.844;4.396;2024-02-26T00:21:26;3.10;;;1.50;;
23159;SDS011;11748;50.844;4.396;2024-02-26T00:23:53;4.57;;;1.70;;
23159;SDS011;11748;50.844;4.396;2024-02-26T00:26:18;2.80;;;1.67;;
23159;SDS011;11748;50.844;4.396;2024-02-26T00:28:46;4.55;;;1.55;;
23159;SDS011;11748;50.844;4.396;2024-02-26T00:31:13;2.55;;;1.50;;
23159;SDS011;11748;50.844;4.396;2024-02-26T00:33:39;3.28;;;1.45;;
23159;SDS011;11748;50.844;4.396;2024-02-26T00:36:04;6.45;;;1.30;;
23159;SDS011;11748;50.844;4.396;2024-02-26T00:38:30;3.60;;;1.60;;
23159;SDS011;11748;50.844;4.396;2024-02-26T00:40:56;2.22;;;1.45;;
23159;SDS011;11748;50.844;4.396;2024-02-26T00:43:22;3.30;;;1.77;;
23159;SDS011;11748;50.844;4.396;2024-02-26T00:45:48;3.88;;;1.42;;
23159;SDS011;11748;50.844;4.396;2024-02-26T00:48:14;3.30;;;1.75;;
23159;SDS011;11748;50.844;4.396;2024-02-26T00:50:39;2.45;;;1.40;;
23159;SDS011;11748;50.844;4.396;2024-02-26T00:53:05;2.53;;;1.55;;
23159;SDS011;11748;50.844;4.396;2024-02-26T00:55:32;3.05;;;1.58;;
23159;SDS011;11748;50.844;4.396;2024-02-26T00:57:58;2.78;;;1.70;;
23159;SDS011;11748;50.844;4.396;2024-02-26T01:00:23;4.63;;;2.38;;
23159;SDS011;11748;50.844;4.396;2024-02-26T01:02:49;3.20;;;1.73;;
23159;SDS011;11748;50.844;4.396;2024-02-26T01:05:14;3.50;;;1.60;;
23159;SDS011;11748;50.844;4.396;2024-02-26T01:07:41;2.33;;;1.60;;
23159;SDS011;11748;50.844;4.396;2024-02-26T01:10:07;2.53;;;1.70;;
23159;SDS011;11748;50.844;4.396;2024-02-26T01:12:33;4.68;;;1.63;;
23159;SDS011;11748;50.844;4.396;2024-02-26T01:14:59;2.75;;;1.70;;
23159;SDS011;11748;50.844;4.396;2024-02-26T01:17:28;2.97;;;1.73;;
23159;SDS011;11748;50.844;4.396;2024-02-26T01:19:55;4.80;;;1.70;;
23159;SDS011;11748;50.844;4.396;2024-02-26T01:22:20;4.07;;;1.60;;
23159;SDS011;11748;50.844;4.396;2024-02-26T01:24:46;3.72;;;1.70;;
23159;SDS011;11748;50.844;4.396;2024-02-26T01:27:12;2.92;;;1.55;;
23159;SDS011;11748;50.844;4.396;2024-02-26T01:29:39;4.18;;;1.98;;
23159;SDS011;11748;50.844;4.396;2024-02-26T01:32:05;4.35;;;1.58;;
23159;SDS011;11748;50.844;4.396;2024-02-26T01:34:31;4.85;;;1.88;;
23159;SDS011;11748;50.844;4.396;2024-02-26T01:36:57;5.00;;;1.98;;
23159;SDS011;11748;50.844;4.396;2024-02-26T01:39:22;2.97;;;2.10;;
23159;SDS011;11748;50.844;4.396;2024-02-26T01:41:48;3.10;;;1.50;;
23159;SDS011;11748;50.844;4.396;2024-02-26T01:44:14;6.28;;;1.85;;
23159;SDS011;11748;50.844;4.396;2024-02-26T01:46:40;3.72;;;1.55;;
23159;SDS011;11748;50.844;4.396;2024-02-26T01:49:06;4.30;;;2.08;;
23159;SDS011;11748;50.844;4.396;2024-02-26T01:51:33;2.72;;;1.50;;
23159;SDS011;11748;50.844;4.396;2024-02-26T01:54:00;5.63;;;1.42;;
23159;SDS011;11748;50.844;4.396;2024-02-26T01:56:27;4.80;;;1.67;;
23159;SDS011;11748;50.844;4.396;2024-02-26T01:58:56;2.75;;;1.40;;
23159;SDS011;11748;50.844;4.396;2024-02-26T02:01:25;2.80;;;1.60;;
23159;SDS011;11748;50.844;4.396;2024-02-26T02:03:54;2.95;;;1.45;;
23159;SDS011;11748;50.844;4.396;2024-02-26T02:06:22;5.47;;;1.50;;
23159;SDS011;11748;50.844;4.396;2024-02-26T02:08:48;1.75;;;1.10;;
23159;SDS011;11748;50.844;4.396;2024-02-26T02:11:14;2.10;;;1.42;;
23159;SDS011;11748;50.844;4.396;2024-02-26T02:13:41;2.95;;;1.38;;
23159;SDS011;11748;50.844;4.396;2024-02-26T02:16:07;3.53;;;1.40;;
23159;SDS011;11748;50.844;4.396;2024-02-26T02:18:33;5.85;;;1.58;;
23159;SDS011;11748;50.844;4.396;2024-02-26T02:21:02;5.32;;;1.70;;
23159;SDS011;11748;50.844;4.396;2024-02-26T02:23:28;3.50;;;1.40;;
23159;SDS011;11748;50.844;4.396;2024-02-26T02:25:54;5.97;;;1.55;;
23159;SDS011;11748;50.844;4.396;2024-02-26T02:28:22;19.25;;;2.67;;
23159;SDS011;11748;50.844;4.396;2024-02-26T02:30:51;2.25;;;1.33;;
23159;SDS011;11748;50.844;4.396;2024-02-26T02:33:17;8.20;;;1.80;;
23159;SDS011;11748;50.844;4.396;2024-02-26T02:35:43;3.15;;;1.38;;
23159;SDS011;11748;50.844;4.396;2024-02-26T02:38:08;4.10;;;1.52;;
23159;SDS011;11748;50.844;4.396;2024-02-26T02:40:35;1.60;;;1.30;;
23159;SDS011;11748;50.844;4.396;2024-02-26T02:43:02;2.15;;;1.27;;
23159;SDS011;11748;50.844;4.396;2024-02-26T02:45:29;2.03;;;1.27;;
23159;SDS011;11748;50.844;4.396;2024-02-26T02:47:55;2.45;;;1.40;;
23159;SDS011;11748;50.844;4.396;2024-02-26T02:50:21;2.17;;;1.30;;
23159;SDS011;11748;50.844;4.396;2024-02-26T02:52:46;3.08;;;1.75;;
23159;SDS011;11748;50.844;4.396;2024-02-26T02:55:13;4.05;;;1.48;;
23159;SDS011;11748;50.844;4.396;2024-02-26T02:57:40;1.80;;;1.25;;
23159;SDS011;11748;50.844;4.396;2024-02-26T03:00:09;1.42;;;1.17;;
23159;SDS011;11748;50.844;4.396;2024-02-26T03:02:36;1.70;;;1.50;;
23159;SDS011;11748;50.844;4.396;2024-02-26T03:05:05;2.85;;;1.52;;
23159;SDS011;11748;50.844;4.396;2024-02-26T03:07:31;2.95;;;1.85;;
23159;SDS011;11748;50.844;4.396;2024-02-26T03:09:57;1.88;;;1.63;;
23159;SDS011;11748;50.844;4.396;2024-02-26T03:12:22;2.28;;;1.83;;
23159;SDS011;11748;50.844;4.396;2024-02-26T03:14:48;4.38;;;1.90;;
23159;SDS011;11748;50.844;4.396;2024-02-26T03:17:14;3.83;;;1.42;;
23159;SDS011;11748;50.844;4.396;2024-02-26T03:19:40;2.20;;;1.70;;
23159;SDS011;11748;50.844;4.396;2024-02-26T03:22:05;2.17;;;1.90;;
23159;SDS011;11748;50.844;4.396;2024-02-26T03:24:32;3.10;;;1.90;;
23159;SDS011;11748;50.844;4.396;2024-02-26T03:26:57;2.05;;;1.67;;
23159;SDS011;11748;50.844;4.396;2024-02-26T03:29:23;2.58;;;1.77;;
23159;SDS011;11748;50.844;4.396;2024-02-26T03:31:49;6.22;;;1.92;;
23159;SDS011;11748;50.844;4.396;2024-02-26T03:34:14;2.92;;;1.88;;
23159;SDS011;11748;50.844;4.396;2024-02-26T03:36:40;2.13;;;1.80;;
23159;SDS011;11748;50.844;4.396;2024-02-26T03:39:07;1.88;;;1.77;;
23159;SDS011;11748;50.844;4.396;2024-02-26T03:41:33;2.42;;;1.58;;
23159;SDS011;11748;50.844;4.396;2024-02-26T03:44:00;3.53;;;1.95;;
23159;SDS011;11748;50.844;4.396;2024-02-26T03:46:26;3.05;;;1.70;;
23159;SDS011;11748;50.844;4.396;2024-02-26T03:48:53;2.38;;;1.70;;
23159;SDS011;11748;50.844;4.396;2024-02-26T03:51:20;4.88;;;2.03;;
23159;SDS011;11748;50.844;4.396;2024-02-26T03:53:46;3.90;;;2.10;;
23159;SDS011;11748;50.844;4.396;2024-02-26T03:56:11;3.30;;;1.70;;
23159;SDS011;11748;50.844;4.396;2024-02-26T03:58:38;3.42;;;1.95;;
23159;SDS011;11748;50.844;4.396;2024-02-26T04:01:08;3.40;;;2.05;;
23159;SDS011;11748;50.844;4.396;2024-02-26T04:03:34;3.00;;;2.10;;
23159;SDS011;11748;50.844;4.396;2024-02-26T04:06:00;4.97;;;2.80;;
23159;SDS011;11748;50.844;4.396;2024-02-26T04:08:26;3.05;;;2.45;;
23159;SDS011;11748;50.844;4.396;2024-02-26T04:10:52;4.93;;;2.60;;
23159;SDS011;11748;50.844;4.396;2024-02-26T04:13:17;3.15;;;2.55;;
23159;SDS011;11748;50.844;4.396;2024-02-26T04:15:43;2.90;;;2.60;;
23159;SDS011;11748;50.844;4.396;2024-02-26T04:18:09;4.07;;;3.20;;
23159;SDS011;11748;50.844;4.396;2024-02-26T04:20:34;4.38;;;3.20;;
23159;SDS011;11748;50.844;4.396;2024-02-26T04:23:00;7.85;;;3.80;;
23159;SDS011;11748;50.844;4.396;2024-02-26T04:25:26;6.00;;;3.83;;
23159;SDS011;11748;50.844;4.396;2024-02-26T04:27:52;5.13;;;3.78;;
23159;SDS011;11748;50.844;4.396;2024-02-26T04:30:18;6.82;;;4.47;;
23159;SDS011;11748;50.844;4.396;2024-02-26T04:32:44;5.13;;;4.53;;
23159;SDS011;11748;50.844;4.396;2024-02-26T04:35:10;5.10;;;4.50;;
23159;SDS011;11748;50.844;4.396;2024-02-26T04:37:36;6.85;;;4.88;;
23159;SDS011;11748;50.844;4.396;2024-02-26T04:40:02;8.35;;;5.07;;
23159;SDS011;11748;50.844;4.396;2024-02-26T04:42:29;7.57;;;5.40;;
23159;SDS011;11748;50.844;4.396;2024-02-26T04:44:55;6.40;;;5.80;;
23159;SDS011;11748;50.844;4.396;2024-02-26T04:47:20;6.45;;;5.43;;
23159;SDS011;11748;50.844;4.396;2024-02-26T04:49:47;7.85;;;5.95;;
23159;SDS011;11748;50.844;4.396;2024-02-26T04:52:14;7.13;;;5.63;;
23159;SDS011;11748;50.844;4.396;2024-02-26T04:54:40;7.55;;;6.38;;
23159;SDS011;11748;50.844;4.396;2024-02-26T04:57:05;7.82;;;6.00;;
23159;SDS011;11748;50.844;4.396;2024-02-26T04:59:31;6.70;;;6.00;;
23159;SDS011;11748;50.844;4.396;2024-02-26T05:01:56;7.25;;;6.53;;
23159;SDS011;11748;50.844;4.396;2024-02-26T05:04:22;7.50;;;6.75;;
23159;SDS011;11748;50.844;4.396;2024-02-26T05:06:48;8.25;;;7.03;;
23159;SDS011;11748;50.844;4.396;2024-02-26T05:09:15;7.43;;;6.65;;
23159;SDS011;11748;50.844;4.396;2024-02-26T05:11:40;9.93;;;7.43;;
23159;SDS011;11748;50.844;4.396;2024-02-26T05:14:06;9.73;;;7.78;;
23159;SDS011;11748;50.844;4.396;2024-02-26T05:16:32;12.82;;;7.90;;
23159;SDS011;11748;50.844;4.396;2024-02-26T05:18:57;13.10;;;8.45;;
23159;SDS011;11748;50.844;4.396;2024-02-26T05:21:23;13.27;;;8.50;;
23159;SDS011;11748;50.844;4.396;2024-02-26T05:23:49;11.63;;;8.60;;
23159;SDS011;11748;50.844;4.396;2024-02-26T05:26:20;13.68;;;9.05;;
23159;SDS011;11748;50.844;4.396;2024-02-26T05:28:47;11.02;;;8.70;;
23159;SDS011;11748;50.844;4.396;2024-02-26T05:31:13;13.32;;;10.77;;
23159;SDS011;11748;50.844;4.396;2024-02-26T05:33:39;14.82;;;10.88;;
23159;SDS011;11748;50.844;4.396;2024-02-26T05:36:05;16.05;;;12.32;;
23159;SDS011;11748;50.844;4.396;2024-02-26T05:38:33;15.77;;;12.68;;
23159;SDS011;11748;50.844;4.396;2024-02-26T05:40:59;17.23;;;14.43;;
23159;SDS011;11748;50.844;4.396;2024-02-26T05:43:25;18.42;;;14.60;;
23159;SDS011;11748;50.844;4.396;2024-02-26T05:45:51;18.80;;;15.50;;
23159;SDS011;11748;50.844;4.396;2024-02-26T05:48:17;21.88;;;15.95;;
23159;SDS011;11748;50.844;4.396;2024-02-26T05:50:44;23.13;;;16.92;;
23159;SDS011;11748;50.844;4.396;2024-02-26T05:53:12;22.02;;;17.25;;
23159;SDS011;11748;50.844;4.396;2024-02-26T05:55:38;22.92;;;16.27;;
23159;SDS011;11748;50.844;4.396;2024-02-26T05:58:04;21.38;;;17.23;;
23159;SDS011;11748;50.844;4.396;2024-02-26T06:00:30;22.38;;;17.60;;
23159;SDS011;11748;50.844;4.396;2024-02-26T06:02:56;23.10;;;17.67;;
23159;SDS011;11748;50.844;4.396;2024-02-26T06:05:21;24.02;;;17.20;;
23159;SDS011;11748;50.844;4.396;2024-02-26T06:07:47;23.05;;;17.70;;
23159;SDS011;11748;50.844;4.396;2024-02-26T06:10:13;24.02;;;17.67;;
23159;SDS011;11748;50.844;4.396;2024-02-26T06:12:39;23.10;;;17.75;;
23159;SDS011;11748;50.844;4.396;2024-02-26T06:15:05;24.15;;;18.27;;
23159;SDS011;11748;50.844;4.396;2024-02-26T06:17:31;23.42;;;17.90;;
23159;SDS011;11748;50.844;4.396;2024-02-26T06:19:57;21.83;;;16.50;;
23159;SDS011;11748;50.844;4.396;2024-02-26T06:22:24;22.20;;;17.77;;
23159;SDS011;11748;50.844;4.396;2024-02-26T06:24:50;19.85;;;16.83;;
23159;SDS011;11748;50.844;4.396;2024-02-26T06:27:16;20.92;;;17.42;;
23159;SDS011;11748;50.844;4.396;2024-02-26T06:29:41;19.38;;;17.27;;
23159;SDS011;11748;50.844;4.396;2024-02-26T06:32:07;20.10;;;16.42;;
23159;SDS011;11748;50.844;4.396;2024-02-26T06:34:32;23.23;;;16.70;;
23159;SDS011;11748;50.844;4.396;2024-02-26T06:36:58;21.30;;;17.73;;
23159;SDS011;11748;50.844;4.396;2024-02-26T06:39:24;21.88;;;18.00;;
23159;SDS011;11748;50.844;4.396;2024-02-26T06:41:49;20.35;;;16.83;;
23159;SDS011;11748;50.844;4.396;2024-02-26T06:44:15;19.85;;;16.92;;
23159;SDS011;11748;50.844;4.396;2024-02-26T06:46:41;21.30;;;16.98;;
23159;SDS011;11748;50.844;4.396;2024-02-26T06:49:06;22.45;;;17.92;;
23159;SDS011;11748;50.844;4.396;2024-02-26T06:51:32;20.10;;;17.13;;
23159;SDS011;11748;50.844;4.396;2024-02-26T06:53:58;20.45;;;16.75;;
23159;SDS011;11748;50.844;4.396;2024-02-26T06:56:23;19.05;;;17.02;;
23159;SDS011;11748;50.844;4.396;2024-02-26T06:58:49;19.17;;;16.15;;
23159;SDS011;11748;50.844;4.396;2024-02-26T07:01:14;21.52;;;17.02;;
23159;SDS011;11748;50.844;4.396;2024-02-26T07:03:40;21.67;;;17.40;;
23159;SDS011;11748;50.844;4.396;2024-02-26T07:06:06;21.80;;;17.48;;
23159;SDS011;11748;50.844;4.396;2024-02-26T07:08:32;20.17;;;18.05;;
23159;SDS011;11748;50.844;4.396;2024-02-26T07:10:57;21.40;;;18.38;;
23159;SDS011;11748;50.844;4.396;2024-02-26T07:13:23;20.67;;;18.13;;
23159;SDS011;11748;50.844;4.396;2024-02-26T07:15:49;20.08;;;17.13;;
23159;SDS011;11748;50.844;4.396;2024-02-26T07:18:15;23.92;;;19.50;;
23159;SDS011;11748;50.844;4.396;2024-02-26T07:20:42;20.70;;;18.50;;
23159;SDS011;11748;50.844;4.396;2024-02-26T07:23:08;22.27;;;19.52;;
23159;SDS011;11748;50.844;4.396;2024-02-26T07:25:34;23.25;;;19.15;;
23159;SDS011;11748;50.844;4.396;2024-02-26T07:27:59;24.55;;;18.90;;
23159;SDS011;11748;50.844;4.396;2024-02-26T07:30:25;21.25;;;18.75;;
23159;SDS011;11748;50.844;4.396;2024-02-26T07:32:51;23.35;;;18.40;;
23159;SDS011;11748;50.844;4.396;2024-02-26T07:35:16;20.60;;;18.40;;
23159;SDS011;11748;50.844;4.396;2024-02-26T07:37:42;22.33;;;19.08;;
23159;SDS011;11748;50.844;4.396;2024-02-26T07:40:09;23.75;;;19.52;;
23159;SDS011;11748;50.844;4.396;2024-02-26T07:42:34;21.73;;;19.42;;
23159;SDS011;11748;50.844;4.396;2024-02-26T07:45:00;21.80;;;18.17;;
23159;SDS011;11748;50.844;4.396;2024-02-26T07:47:27;20.35;;;18.00;;
23159;SDS011;11748;50.844;4.396;2024-02-26T07:49:53;20.55;;;18.35;;
23159;SDS011;11748;50.844;4.396;2024-02-26T07:52:18;19.52;;;17.30;;
23159;SDS011;11748;50.844;4.396;2024-02-26T07:54:44;21.42;;;17.85;;
23159;SDS011;11748;50.844;4.396;2024-02-26T07:57:10;22.27;;;18.42;;
23159;SDS011;11748;50.844;4.396;2024-02-26T07:59:35;20.20;;;17.88;;
23159;SDS011;11748;50.844;4.396;2024-02-26T08:02:01;19.13;;;16.77;;
23159;SDS011;11748;50.844;4.396;2024-02-26T08:04:28;20.05;;;17.10;;
23159;SDS011;11748;50.844;4.396;2024-02-26T08:06:54;21.88;;;16.60;;
23159;SDS011;11748;50.844;4.396;2024-02-26T08:09:20;19.02;;;16.13;;
23159;SDS011;11748;50.844;4.396;2024-02-26T08:11:46;18.30;;;15.60;;
23159;SDS011;11748;50.844;4.396;2024-02-26T08:16:40;17.20;;;15.27;;
23159;SDS011;11748;50.844;4.396;2024-02-26T08:19:06;17.25;;;15.02;;
23159;SDS011;11748;50.844;4.396;2024-02-26T08:21:31;17.30;;;15.50;;
23159;SDS011;11748;50.844;4.396;2024-02-26T08:23:57;16.60;;;14.75;;
23159;SDS011;11748;50.844;4.396;2024-02-26T08:26:22;17.15;;;15.35;;
23159;SDS011;11748;50.844;4.396;2024-02-26T08:28:50;17.23;;;15.18;;
23159;SDS011;11748;50.844;4.396;2024-02-26T08:31:16;16.73;;;14.93;;
23159;SDS011;11748;50.844;4.396;2024-02-26T08:33:42;16.05;;;14.35;;
23159;SDS011;11748;50.844;4.396;2024-02-26T08:36:08;17.23;;;14.77;;
23159;SDS011;11748;50.844;4.396;2024-02-26T08:38:33;16.48;;;14.73;;
23159;SDS011;11748;50.844;4.396;2024-02-26T08:41:01;15.38;;;13.70;;
23159;SDS011;11748;50.844;4.396;2024-02-26T08:43:28;15.70;;;14.10;;
23159;SDS011;11748;50.844;4.396;2024-02-26T08:45:53;15.82;;;13.80;;
23159;SDS011;11748;50.844;4.396;2024-02-26T08:48:19;16.08;;;14.48;;
23159;SDS011;11748;50.844;4.396;2024-02-26T08:50:45;16.00;;;14.20;;
23159;SDS011;11748;50.844;4.396;2024-02-26T08:53:11;16.48;;;14.80;;
23159;SDS011;11748;50.844;4.396;2024-02-26T08:55:37;16.05;;;14.38;;
23159;SDS011;11748;50.844;4.396;2024-02-26T08:58:03;15.77;;;13.65;;
23159;SDS011;11748;50.844;4.396;2024-02-26T09:00:28;15.90;;;14.25;;
23159;SDS011;11748;50.844;4.396;2024-02-26T09:02:54;15.98;;;14.27;;
23159;SDS011;11748;50.844;4.396;2024-02-26T09:05:19;15.82;;;14.23;;
23159;SDS011;11748;50.844;4.396;2024-02-26T09:07:45;14.77;;;13.20;;
23159;SDS011;11748;50.844;4.396;2024-02-26T09:10:11;17.55;;;14.48;;
23159;SDS011;11748;50.844;4.396;2024-02-26T09:12:37;15.48;;;13.35;;
23159;SDS011;11748;50.844;4.396;2024-02-26T09:15:05;15.38;;;13.77;;
23159;SDS011;11748;50.844;4.396;2024-02-26T09:17:32;16.48;;;13.45;;
23159;SDS011;11748;50.844;4.396;2024-02-26T09:19:58;15.65;;;13.27;;
23159;SDS011;11748;50.844;4.396;2024-02-26T09:22:23;14.00;;;12.38;;
23159;SDS011;11748;50.844;4.396;2024-02-26T09:24:49;14.77;;;13.27;;
23159;SDS011;11748;50.844;4.396;2024-02-26T09:27:16;14.50;;;13.00;;
23159;SDS011;11748;50.844;4.396;2024-02-26T09:29:42;14.18;;;12.63;;
23159;SDS011;11748;50.844;4.396;2024-02-26T09:32:08;14.20;;;12.50;;
23159;SDS011;11748;50.844;4.396;2024-02-26T09:34:34;15.65;;;13.77;;
23159;SDS011;11748;50.844;4.396;2024-02-26T09:37:00;15.10;;;13.60;;
23159;SDS011;11748;50.844;4.396;2024-02-26T09:39:27;15.50;;;13.85;;
23159;SDS011;11748;50.844;4.396;2024-02-26T09:41:53;17.40;;;13.50;;
23159;SDS011;11748;50.844;4.396;2024-02-26T09:44:19;15.18;;;13.57;;
23159;SDS011;11748;50.844;4.396;2024-02-26T09:46:47;16.80;;;13.00;;
23159;SDS011;11748;50.844;4.396;2024-02-26T09:49:13;14.27;;;12.45;;
23159;SDS011;11748;50.844;4.396;2024-02-26T09:51:41;16.05;;;13.38;;
23159;SDS011;11748;50.844;4.396;2024-02-26T09:54:09;14.80;;;13.27;;
23159;SDS011;11748;50.844;4.396;2024-02-26T09:56:38;16.60;;;13.20;;
23159;SDS011;11748;50.844;4.396;2024-02-26T09:59:09;14.50;;;12.77;;
23159;SDS011;11748;50.844;4.396;2024-02-26T10:01:40;15.23;;;12.98;;
23159;SDS011;11748;50.844;4.396;2024-02-26T10:04:08;14.32;;;12.88;;
23159;SDS011;11748;50.844;4.396;2024-02-26T10:06:36;15.23;;;12.23;;
23159;SDS011;11748;50.844;4.396;2024-02-26T10:09:03;13.80;;;12.18;;
23159;SDS011;11748;50.844;4.396;2024-02-26T10:11:32;14.88;;;12.13;;
23159;SDS011;11748;50.844;4.396;2024-02-26T10:13:58;12.98;;;11.68;;
23159;SDS011;11748;50.844;4.396;2024-02-26T10:16:24;14.68;;;12.02;;
23159;SDS011;11748;50.844;4.396;2024-02-26T10:18:52;15.23;;;13.07;;
23159;SDS011;11748;50.844;4.396;2024-02-26T10:21:21;15.80;;;12.90;;
23159;SDS011;11748;50.844;4.396;2024-02-26T10:23:48;14.23;;;11.35;;
23159;SDS011;11748;50.844;4.396;2024-02-26T10:26:14;16.27;;;12.27;;
23159;SDS011;11748;50.844;4.396;2024-02-26T10:28:44;12.52;;;11.25;;
23159;SDS011;11748;50.844;4.396;2024-02-26T10:31:11;13.80;;;11.73;;
23159;SDS011;11748;50.844;4.396;2024-02-26T10:33:40;12.10;;;10.90;;
23159;SDS011;11748;50.844;4.396;2024-02-26T10:36:07;12.27;;;10.38;;
23159;SDS011;11748;50.844;4.396;2024-02-26T10:38:34;14.23;;;10.38;;
23159;SDS011;11748;50.844;4.396;2024-02-26T10:41:03;11.65;;;10.10;;
23159;SDS011;11748;50.844;4.396;2024-02-26T10:43:33;11.60;;;10.40;;
23159;SDS011;11748;50.844;4.396;2024-02-26T10:45:59;11.00;;;9.90;;
23159;SDS011;11748;50.844;4.396;2024-02-26T10:48:25;12.32;;;10.25;;
23159;SDS011;11748;50.844;4.396;2024-02-26T10:50:52;10.82;;;9.73;;
23159;SDS011;11748;50.844;4.396;2024-02-26T10:53:20;10.35;;;9.35;;
23159;SDS011;11748;50.844;4.396;2024-02-26T10:56:01;12.25;;;9.90;;
23159;SDS011;11748;50.844;4.396;2024-02-26T10:58:29;10.60;;;9.38;;
23159;SDS011;11748;50.844;4.396;2024-02-26T11:00:57;9.43;;;8.50;;
23159;SDS011;11748;50.844;4.396;2024-02-26T11:03:24;9.15;;;8.25;;
23159;SDS011;11748;50.844;4.396;2024-02-26T11:05:50;8.70;;;7.80;;
23159;SDS011;11748;50.844;4.396;2024-02-26T11:08:19;9.55;;;8.30;;
23159;SDS011;11748;50.844;4.396;2024-02-26T11:10:50;9.27;;;7.45;;
23159;SDS011;11748;50.844;4.396;2024-02-26T11:13:19;7.78;;;7.05;;
23159;SDS011;11748;50.844;4.396;2024-02-26T11:15:46;7.78;;;7.00;;
23159;SDS011;11748;50.844;4.396;2024-02-26T11:18:14;8.07;;;7.28;;
23159;SDS011;11748;50.844;4.396;2024-02-26T11:20:40;8.20;;;7.20;;
23159;SDS011;11748;50.844;4.396;2024-02-26T11:23:08;8.00;;;7.20;;
23159;SDS011;11748;50.844;4.396;2024-02-26T11:25:40;7.30;;;6.60;;
23159;SDS011;11748;50.844;4.396;2024-02-26T11:28:12;7.80;;;7.00;;
23159;SDS011;11748;50.844;4.396;2024-02-26T11:30:46;7.18;;;6.47;;
23159;SDS011;11748;50.844;4.396;2024-02-26T11:33:14;8.10;;;6.13;;
23159;SDS011;11748;50.844;4.396;2024-02-26T11:35:40;7.38;;;6.68;;
23159;SDS011;11748;50.844;4.396;2024-02-26T11:38:06;8.88;;;6.15;;
23159;SDS011;11748;50.844;4.396;2024-02-26T11:40:33;7.97;;;6.38;;
23159;SDS011;11748;50.844;4.396;2024-02-26T11:43:04;6.88;;;6.28;;
23159;SDS011;11748;50.844;4.396;2024-02-26T11:48:11;8.25;;;6.85;;
23159;SDS011;11748;50.844;4.396;2024-02-26T11:50:50;6.72;;;5.78;;
23159;SDS011;11748;50.844;4.396;2024-02-26T11:58:43;10.30;;;6.50;;
23159;SDS011;11748;50.844;4.396;2024-02-26T12:04:21;8.05;;;5.82;;
23159;SDS011;11748;50.844;4.396;2024-02-26T12:06:56;6.32;;;5.72;;
23159;SDS011;11748;50.844;4.396;2024-02-26T12:09:38;6.93;;;6.22;;
23159;SDS011;11748;50.844;4.396;2024-02-26T12:12:06;7.07;;;6.25;;
23159;SDS011;11748;50.844;4.396;2024-02-26T12:14:38;7.22;;;6.40;;
23159;SDS011;11748;50.844;4.396;2024-02-26T12:17:25;7.55;;;6.75;;
23159;SDS011;11748;50.844;4.396;2024-02-26T12:19:51;8.50;;;7.18;;
23159;SDS011;11748;50.844;4.396;2024-02-26T12:22:19;7.10;;;6.40;;
23159;SDS011;11748;50.844;4.396;2024-02-26T12:24:47;7.35;;;6.55;;
23159;SDS011;11748;50.844;4.396;2024-02-26T12:27:13;7.90;;;7.10;;
23159;SDS011;11748;50.844;4.396;2024-02-26T12:29:41;7.72;;;6.93;;
23159;SDS011;11748;50.844;4.396;2024-02-26T12:32:06;10.55;;;6.93;;
23159;SDS011;11748;50.844;4.396;2024-02-26T12:34:32;8.65;;;7.38;;
23159;SDS011;11748;50.844;4.396;2024-02-26T12:36:58;9.77;;;6.32;;
23159;SDS011;11748;50.844;4.396;2024-02-26T12:39:25;6.85;;;6.22;;
23159;SDS011;11748;50.844;4.396;2024-02-26T12:41:52;7.72;;;7.03;;
23159;SDS011;11748;50.844;4.396;2024-02-26T12:44:26;6.70;;;6.00;;
23159;SDS011;11748;50.844;4.396;2024-02-26T12:47:02;7.97;;;6.45;;
23159;SDS011;11748;50.844;4.396;2024-02-26T12:49:30;7.53;;;6.75;;
23159;SDS011;11748;50.844;4.396;2024-02-26T12:51:56;6.82;;;6.07;;
23159;SDS011;11748;50.844;4.396;2024-02-26T12:54:33;6.65;;;6.00;;
23159;SDS011;11748;50.844;4.396;2024-02-26T12:57:04;6.30;;;5.70;;
23159;SDS011;11748;50.844;4.396;2024-02-26T12:59:33;6.53;;;5.93;;
23159;SDS011;11748;50.844;4.396;2024-02-26T13:02:00;7.65;;;6.47;;
23159;SDS011;11748;50.844;4.396;2024-02-26T13:04:28;7.53;;;6.80;;
23159;SDS011;11748;50.844;4.396;2024-02-26T13:06:55;7.72;;;6.90;;
23159;SDS011;11748;50.844;4.396;2024-02-26T13:09:26;8.15;;;7.35;;
23159;SDS011;11748;50.844;4.396;2024-02-26T13:14:21;8.30;;;7.25;;
23159;SDS011;11748;50.844;4.396;2024-02-26T13:17:00;8.52;;;7.63;;
23159;SDS011;11748;50.844;4.396;2024-02-26T13:19:28;7.60;;;6.78;;
23159;SDS011;11748;50.844;4.396;2024-02-26T13:21:54;9.95;;;7.13;;
23159;SDS011;11748;50.844;4.396;2024-02-26T13:24:20;8.63;;;7.82;;
23159;SDS011;11748;50.844;4.396;2024-02-26T13:26:56;9.55;;;8.18;;
23159;SDS011;11748;50.844;4.396;2024-02-26T13:29:24;9.32;;;8.32;;
23159;SDS011;11748;50.844;4.396;2024-02-26T13:34:27;9.15;;;8.25;;
23159;SDS011;11748;50.844;4.396;2024-02-26T13:36:55;11.63;;;9.27;;
23159;SDS011;11748;50.844;4.396;2024-02-26T13:39:25;10.93;;;9.82;;
23159;SDS011;11748;50.844;4.396;2024-02-26T13:41:52;10.93;;;9.77;;
23159;SDS011;11748;50.844;4.396;2024-02-26T13:44:19;11.00;;;9.95;;
23159;SDS011;11748;50.844;4.396;2024-02-26T13:46:45;10.50;;;9.40;;
23159;SDS011;11748;50.844;4.396;2024-02-26T13:49:11;10.63;;;9.52;;
23159;SDS011;11748;50.844;4.396;2024-02-26T13:51:38;12.00;;;10.23;;
23159;SDS011;11748;50.844;4.396;2024-02-26T13:54:04;12.45;;;10.98;;
23159;SDS011;11748;50.844;4.396;2024-02-26T13:56:30;12.40;;;11.15;;
23159;SDS011;11748;50.844;4.396;2024-02-26T13:58:57;12.32;;;11.13;;
23159;SDS011;11748;50.844;4.396;2024-02-26T14:01:23;13.55;;;11.25;;
23159;SDS011;11748;50.844;4.396;2024-02-26T14:03:50;14.18;;;11.80;;
23159;SDS011;11748;50.844;4.396;2024-02-26T14:06:16;12.93;;;11.52;;
23159;SDS011;11748;50.844;4.396;2024-02-26T14:08:41;13.63;;;11.70;;
23159;SDS011;11748;50.844;4.396;2024-02-26T14:11:07;13.73;;;11.77;;
23159;SDS011;11748;50.844;4.396;2024-02-26T14:13:33;15.35;;;12.15;;
23159;SDS011;11748;50.844;4.396;2024-02-26T14:15:58;12.25;;;10.95;;
23159;SDS011;11748;50.844;4.396;2024-02-26T14:18:24;13.98;;;11.55;;
23159;SDS011;11748;50.844;4.396;2024-02-26T14:20:50;14.57;;;11.30;;
23159;SDS011;11748;50.844;4.396;2024-02-26T14:23:16;15.77;;;11.20;;
23159;SDS011;11748;50.844;4.396;2024-02-26T14:25:42;13.20;;;11.45;;
23159;SDS011;11748;50.844;4.396;2024-02-26T14:28:07;14.35;;;11.43;;
23159;SDS011;11748;50.844;4.396;2024-02-26T14:30:35;14.30;;;11.95;;
23159;SDS011;11748;50.844;4.396;2024-02-26T14:33:00;12.65;;;10.55;;
23159;SDS011;11748;50.844;4.396;2024-02-26T14:35:26;14.52;;;11.98;;
23159;SDS011;11748;50.844;4.396;2024-02-26T14:37:52;14.13;;;10.98;;
23159;SDS011;11748;50.844;4.396;2024-02-26T14:40:19;15.00;;;11.35;;
23159;SDS011;11748;50.844;4.396;2024-02-26T14:42:53;15.38;;;12.00;;
23159;SDS011;11748;50.844;4.396;2024-02-26T14:45:19;16.20;;;12.15;;
23159;SDS011;11748;50.844;4.396;2024-02-26T14:47:45;13.82;;;11.40;;
23159;SDS011;11748;50.844;4.396;2024-02-26T14:50:13;16.15;;;13.10;;
23159;SDS011;11748;50.844;4.396;2024-02-26T14:52:38;17.20;;;12.00;;